createdAt,value
2023-03-16T00:01:19.071Z,3.1
2023-03-16T00:04:19.067Z,2.7
2023-03-16T00:07:19.099Z,2.7
2023-03-16T00:10:19.075Z,2.7
2023-03-16T00:13:19.080Z,2.5
2023-03-16T00:16:19.156Z,2.7
2023-03-16T00:19:19.082Z,2.5
2023-03-16T00:22:19.091Z,2.4
2023-03-16T00:25:19.120Z,2.3
2023-03-16T00:28:19.086Z,2.5
2023-03-16T00:31:19.133Z,2.6
2023-03-16T00:34:19.093Z,2.5
2023-03-16T00:37:19.163Z,2.6
2023-03-16T00:40:19.117Z,2.7
2023-03-16T00:43:19.166Z,2.7
2023-03-16T00:46:19.199Z,2.8
2023-03-16T00:49:19.161Z,2.6
2023-03-16T00:52:19.168Z,2.4
2023-03-16T00:55:19.177Z,2.6
2023-03-16T00:58:19.185Z,2.3
2023-03-16T01:01:19.369Z,2.4
2023-03-16T01:04:19.195Z,2.2
2023-03-16T01:07:19.202Z,2.1
2023-03-16T01:10:19.202Z,2.1
2023-03-16T01:13:19.208Z,2.1
2023-03-16T01:16:19.335Z,2
2023-03-16T01:19:19.256Z,2.1
2023-03-16T01:22:19.219Z,2.5
2023-03-16T01:25:19.236Z,2.2
2023-03-16T01:28:19.245Z,2
2023-03-16T01:31:19.332Z,2.1
2023-03-16T01:34:19.241Z,2.1
2023-03-16T01:37:19.281Z,2
2023-03-16T01:40:19.258Z,2.2
2023-03-16T01:43:19.269Z,2.2
2023-03-16T01:46:19.364Z,2.4
2023-03-16T01:49:19.277Z,2.3
2023-03-16T01:52:19.278Z,2.3
2023-03-16T01:55:19.309Z,2.2
2023-03-16T01:58:19.293Z,2.3
2023-03-16T02:01:19.329Z,2.2
2023-03-16T02:04:19.333Z,2.3
2023-03-16T02:07:19.320Z,2.4
2023-03-16T02:10:19.308Z,2.1
2023-03-16T02:13:19.341Z,2.2
2023-03-16T02:16:19.590Z,2.3
2023-03-16T02:19:19.322Z,2.2
2023-03-16T02:22:19.325Z,2.2
2023-03-16T02:25:19.338Z,2.1
2023-03-16T02:28:19.342Z,2.7
2023-03-16T02:31:19.399Z,2.6
2023-03-16T02:34:19.342Z,2.4
2023-03-16T02:37:19.352Z,2.7
2023-03-16T02:40:19.354Z,2.7
2023-03-16T02:43:19.533Z,2.9
2023-03-16T02:46:19.402Z,2.6
2023-03-16T02:49:19.392Z,2.7
2023-03-16T02:52:19.370Z,2.6
2023-03-16T02:55:19.374Z,2.4
2023-03-16T02:58:19.377Z,2.9
2023-03-16T03:01:19.453Z,2.8
2023-03-16T03:04:19.379Z,3
2023-03-16T03:07:19.417Z,3.2
2023-03-16T03:10:19.392Z,2.7
2023-03-16T03:13:19.402Z,3.5
2023-03-16T03:16:19.472Z,3.1
2023-03-16T03:19:19.419Z,3.1
2023-03-16T03:22:19.419Z,2.8
2023-03-16T03:25:19.451Z,2.7
2023-03-16T03:28:19.432Z,2.4
2023-03-16T03:31:19.443Z,2.4
2023-03-16T03:34:19.434Z,2.1
2023-03-16T03:37:19.457Z,2.6
2023-03-16T03:40:19.450Z,1.9
2023-03-16T03:43:19.473Z,2.1
2023-03-16T03:46:19.583Z,1.9
2023-03-16T03:49:19.454Z,1.7
2023-03-16T03:52:19.457Z,1.9
2023-03-16T03:55:19.466Z,2.2
2023-03-16T03:58:19.468Z,2.1
2023-03-16T04:01:19.495Z,2
2023-03-16T04:04:19.470Z,2.1
2023-03-16T04:07:19.480Z,2.1
2023-03-16T04:10:19.480Z,2.3
2023-03-16T04:13:19.495Z,2.1
2023-03-16T04:16:19.547Z,2.1
2023-03-16T04:19:19.522Z,2
2023-03-16T04:22:19.501Z,2.2
2023-03-16T04:25:19.506Z,2.2
2023-03-16T04:28:19.505Z,2.2
2023-03-16T04:31:19.586Z,2.3
2023-03-16T04:34:19.507Z,2.1
2023-03-16T04:37:19.543Z,2.1
2023-03-16T04:40:19.547Z,2.1
2023-03-16T04:43:19.544Z,2.3
2023-03-16T04:46:19.626Z,2.9
2023-03-16T04:49:19.574Z,2.3
2023-03-16T04:52:19.553Z,2.3
2023-03-16T04:55:19.574Z,2.4
2023-03-16T04:58:19.555Z,2.2
2023-03-16T05:01:19.657Z,3.1
2023-03-16T05:04:19.978Z,3.2
2023-03-16T05:07:19.558Z,3.7
2023-03-16T05:10:19.558Z,4.1
2023-03-16T05:13:19.597Z,4.4
2023-03-16T05:16:19.643Z,3.9
2023-03-16T05:19:19.697Z,3.5
2023-03-16T05:22:19.578Z,3.2
2023-03-16T05:25:19.592Z,2.7
2023-03-16T05:28:19.591Z,3
2023-03-16T05:31:19.655Z,2.9
2023-03-16T05:34:19.727Z,3
2023-03-16T05:37:19.623Z,3
2023-03-16T05:40:19.619Z,3.1
2023-03-16T05:43:19.635Z,3
2023-03-16T05:46:20.813Z,2.9
2023-03-16T05:49:19.897Z,2.8
2023-03-16T05:52:19.635Z,3
2023-03-16T05:55:19.649Z,2.8
2023-03-16T05:58:19.644Z,2.3
2023-03-16T06:01:19.663Z,2.3
2023-03-16T06:04:19.739Z,2.1
2023-03-16T06:07:19.701Z,2.1
2023-03-16T06:10:19.680Z,2
2023-03-16T06:13:19.688Z,2.1
2023-03-16T06:16:19.810Z,2
2023-03-16T06:19:19.697Z,2
2023-03-16T06:22:19.760Z,1.9
2023-03-16T06:25:19.741Z,1.7
2023-03-16T06:28:19.708Z,1.6
2023-03-16T06:31:19.730Z,1.9
2023-03-16T06:34:19.711Z,1.6
2023-03-16T06:37:19.716Z,1.6
2023-03-16T06:40:19.724Z,1.8
2023-03-16T06:43:19.757Z,1.9
2023-03-16T06:46:19.746Z,2
2023-03-16T06:49:19.734Z,1.9
2023-03-16T06:52:19.739Z,1.8
2023-03-16T06:55:19.746Z,1.6
2023-03-16T06:58:19.745Z,1.6
2023-03-16T07:01:19.790Z,1.6
2023-03-16T07:04:19.760Z,1.6
2023-03-16T07:07:19.747Z,1.6
2023-03-16T07:10:19.774Z,1.7
2023-03-16T07:13:19.759Z,1.9
2023-03-16T07:16:19.869Z,2
2023-03-16T07:19:19.834Z,1.7
2023-03-16T07:22:19.774Z,1.7
2023-03-16T07:25:19.782Z,1.9
2023-03-16T07:28:19.784Z,1.7
2023-03-16T07:31:19.809Z,1.6
2023-03-16T07:34:19.796Z,1.4
2023-03-16T07:37:24.958Z,1.4
2023-03-16T07:40:19.797Z,1.4
2023-03-16T07:43:19.814Z,1.3
2023-03-16T07:46:19.873Z,1.4
2023-03-16T07:49:19.802Z,1.3
2023-03-16T07:52:19.813Z,1.4
2023-03-16T07:55:19.851Z,1.3
2023-03-16T07:58:19.822Z,1.4
2023-03-16T08:01:19.825Z,1.3
2023-03-16T08:04:19.823Z,1.4
2023-03-16T08:07:19.831Z,1.1
2023-03-16T08:10:20.103Z,1.2
2023-03-16T08:13:19.868Z,1.3
2023-03-16T08:16:21.986Z,1.4
2023-03-16T08:19:19.854Z,1.3
2023-03-16T08:22:19.858Z,1.2
2023-03-16T08:25:19.878Z,1.2
2023-03-16T08:28:19.866Z,1.2
2023-03-16T08:31:19.977Z,1.3
2023-03-16T08:34:19.869Z,1.2
2023-03-16T08:37:19.881Z,1.5
2023-03-16T08:40:19.879Z,1.3
2023-03-16T08:43:19.885Z,1.1
2023-03-16T08:46:19.924Z,1.2
2023-03-16T08:49:19.914Z,1.3
2023-03-16T08:52:19.896Z,1.3
2023-03-16T08:55:19.899Z,1.1
2023-03-16T08:58:19.910Z,1.2
2023-03-16T09:01:19.949Z,1.3
2023-03-16T09:04:19.963Z,1
2023-03-16T09:07:19.934Z,1.1
2023-03-16T09:10:19.918Z,1.1
2023-03-16T09:13:19.926Z,1
2023-03-16T09:16:19.977Z,1
2023-03-16T09:19:19.939Z,1.1
2023-03-16T09:22:20.039Z,1.3
2023-03-16T09:25:20.001Z,1.3
2023-03-16T09:28:22.008Z,1.2
2023-03-16T09:31:20.114Z,1.2
2023-03-16T09:34:19.951Z,1.2
2023-03-16T09:37:19.964Z,1.2
2023-03-16T09:40:19.959Z,1.1
2023-03-16T09:43:19.985Z,1
2023-03-16T09:46:19.988Z,1
2023-03-16T09:49:19.968Z,1
2023-03-16T09:52:19.965Z,1.1
2023-03-16T09:55:19.975Z,0.9
2023-03-16T09:58:19.978Z,0.9
2023-03-16T10:01:20.032Z,1
2023-03-16T10:04:20.038Z,1
2023-03-16T10:07:19.991Z,1
2023-03-16T10:10:19.987Z,0.9
2023-03-16T10:13:19.991Z,0.8
2023-03-16T10:16:20.046Z,0.9
2023-03-16T10:19:20.043Z,0.8
2023-03-16T10:22:20.013Z,0.9
2023-03-16T10:25:20.008Z,0.8
2023-03-16T10:28:20.018Z,0.9
2023-03-16T10:31:20.047Z,0.9
2023-03-16T10:34:20.023Z,0.8
2023-03-16T10:37:20.059Z,0.8
2023-03-16T10:40:20.026Z,0.9
2023-03-16T10:43:20.040Z,0.7
2023-03-16T10:46:20.188Z,1
2023-03-16T10:49:20.044Z,0.9
2023-03-16T10:52:20.049Z,0.9
2023-03-16T10:55:20.077Z,1
2023-03-16T10:58:20.070Z,1
2023-03-16T11:01:20.128Z,0.9
2023-03-16T11:04:20.136Z,1
2023-03-16T11:07:20.083Z,0.8
2023-03-16T11:10:20.082Z,1
2023-03-16T11:13:20.123Z,1
2023-03-16T11:16:20.169Z,1.1
2023-03-16T11:19:20.100Z,1
2023-03-16T11:22:20.113Z,1
2023-03-16T11:25:20.112Z,1
2023-03-16T11:28:20.109Z,1
2023-03-16T11:31:20.240Z,0.9
2023-03-16T11:34:20.122Z,0.9
2023-03-16T11:37:20.131Z,1
2023-03-16T11:40:20.146Z,0.9
2023-03-16T11:43:20.141Z,1
2023-03-16T11:46:20.247Z,0.9
2023-03-16T11:49:20.172Z,1
2023-03-16T11:52:20.297Z,0.9
2023-03-16T11:55:20.153Z,0.9
2023-03-16T11:58:20.152Z,0.9
2023-03-16T12:01:20.449Z,0.8
2023-03-16T12:04:20.287Z,0.9
2023-03-16T12:07:20.198Z,0.9
2023-03-16T12:10:20.177Z,0.9
2023-03-16T12:13:20.174Z,0.8
2023-03-16T12:16:20.222Z,0.8
2023-03-16T12:19:20.169Z,0.8
2023-03-16T12:22:20.180Z,0.7
2023-03-16T12:25:20.209Z,0.9
2023-03-16T12:28:20.191Z,0.8
2023-03-16T12:31:20.245Z,0.9
2023-03-16T12:34:20.194Z,0.7
2023-03-16T12:37:20.201Z,0.8
2023-03-16T12:40:20.202Z,0.8
2023-03-16T12:43:20.241Z,0.8
2023-03-16T12:46:20.256Z,0.6
2023-03-16T12:49:20.218Z,0.8
2023-03-16T12:52:20.230Z,0.8
2023-03-16T12:55:20.227Z,0.8
2023-03-16T12:58:20.229Z,0.7
2023-03-16T13:01:20.278Z,0.9
2023-03-16T13:04:20.319Z,0.6
2023-03-16T13:07:20.311Z,0.9
2023-03-16T13:10:20.272Z,0.7
2023-03-16T13:13:20.263Z,0.7
2023-03-16T13:16:20.287Z,0.7
2023-03-16T13:19:20.291Z,0.6
2023-03-16T13:22:20.266Z,0.8
2023-03-16T13:25:20.270Z,0.7
2023-03-16T13:28:20.273Z,0.8
2023-03-16T13:31:20.326Z,0.8
2023-03-16T13:34:20.318Z,0.7
2023-03-16T13:37:20.320Z,0.6
2023-03-16T13:40:20.330Z,0.7
2023-03-16T13:43:20.300Z,0.5
2023-03-16T13:46:20.346Z,0.9
2023-03-16T13:49:20.301Z,0.7
2023-03-16T13:52:20.294Z,0.6
2023-03-16T13:55:20.354Z,0.7
2023-03-16T13:58:20.308Z,0.7
2023-03-16T14:01:20.377Z,0.8
2023-03-16T14:04:20.312Z,0.7
2023-03-16T14:07:20.313Z,0.7
2023-03-16T14:10:20.316Z,0.9
2023-03-16T14:13:20.346Z,0.8
2023-03-16T14:16:20.405Z,0.7
2023-03-16T14:19:20.359Z,0.7
2023-03-16T14:22:20.327Z,0.9
2023-03-16T14:25:20.322Z,0.9
2023-03-16T14:28:20.328Z,0.9
2023-03-16T14:31:20.444Z,0.8
2023-03-16T14:34:20.329Z,1
2023-03-16T14:37:20.336Z,0.9
2023-03-16T14:40:20.346Z,1
2023-03-16T14:43:20.352Z,1
2023-03-16T14:46:20.401Z,1
2023-03-16T14:49:20.382Z,1
2023-03-16T14:52:20.348Z,1
2023-03-16T14:55:20.388Z,1.3
2023-03-16T14:58:20.402Z,1.2
2023-03-16T15:01:20.491Z,1.1
2023-03-16T15:04:20.431Z,1.2
2023-03-16T15:07:20.462Z,1.2
2023-03-16T15:10:20.432Z,1.3
2023-03-16T15:13:20.446Z,1.3
2023-03-16T15:16:20.501Z,1.2
2023-03-16T15:19:20.462Z,1.3
2023-03-16T15:22:20.467Z,1.2
2023-03-16T15:25:20.509Z,1.2
2023-03-16T15:28:20.480Z,1.2
2023-03-16T15:31:20.532Z,1.3
2023-03-16T15:34:20.499Z,1.4
2023-03-16T15:37:20.504Z,1.3
2023-03-16T15:40:20.509Z,1.3
2023-03-16T15:43:20.536Z,1.3
2023-03-16T15:46:20.542Z,1.4
2023-03-16T15:49:20.514Z,1.4
2023-03-16T15:52:20.524Z,1.2
2023-03-16T15:55:20.522Z,1.3
2023-03-16T15:58:20.539Z,1.3
2023-03-16T16:01:20.613Z,1.2
2023-03-16T16:04:20.571Z,1.2
2023-03-16T16:07:20.533Z,1.2
2023-03-16T16:10:20.550Z,1.4
2023-03-16T16:13:21.404Z,1.5
2023-03-16T16:16:20.643Z,1.3
2023-03-16T16:19:20.588Z,1.7
2023-03-16T16:22:20.560Z,1.4
2023-03-16T16:25:20.568Z,1.6
2023-03-16T16:28:20.574Z,1.7
2023-03-16T16:31:20.586Z,2.2
2023-03-16T16:34:20.587Z,2.2
2023-03-16T16:37:20.610Z,2.5
2023-03-16T16:40:20.587Z,2.8
2023-03-16T16:43:20.592Z,1.9
2023-03-16T16:46:20.627Z,2.1
2023-03-16T16:49:20.598Z,2.2
2023-03-16T16:52:20.611Z,2.4
2023-03-16T16:55:20.643Z,1.9
2023-03-16T16:58:24.415Z,2.2
2023-03-16T17:01:20.905Z,2.2
2023-03-16T17:04:20.651Z,2.2
2023-03-16T17:07:20.687Z,3
2023-03-16T17:10:20.646Z,2.6
2023-03-16T17:13:20.677Z,3.3
2023-03-16T17:16:20.693Z,2.3
2023-03-16T17:19:20.696Z,1.9
2023-03-16T17:22:20.698Z,1.9
2023-03-16T17:25:20.704Z,2.1
2023-03-16T17:28:20.734Z,2.3
2023-03-16T17:31:20.780Z,2.7
2023-03-16T17:34:20.735Z,2.1
2023-03-16T17:37:20.750Z,2.2
2023-03-16T17:40:20.740Z,2.4
2023-03-16T17:43:20.744Z,2.8
2023-03-16T17:46:20.800Z,2.1
2023-03-16T17:49:20.767Z,1.9
2023-03-16T17:52:20.749Z,1.7
2023-03-16T17:55:20.747Z,2.1
2023-03-16T17:58:20.744Z,2.1
2023-03-16T18:01:20.770Z,2
2023-03-16T18:04:20.750Z,1.9
2023-03-16T18:07:20.784Z,1.8
2023-03-16T18:10:20.750Z,2
2023-03-16T18:13:20.751Z,2.1
2023-03-16T18:16:20.815Z,1.8
2023-03-16T18:19:20.756Z,2
2023-03-16T18:22:20.761Z,2
2023-03-16T18:25:20.797Z,2
2023-03-16T18:28:20.782Z,1.9
2023-03-16T18:31:20.788Z,1.9
2023-03-16T18:34:20.762Z,1.8
2023-03-16T18:37:20.763Z,1.8
2023-03-16T18:40:20.770Z,1.8
2023-03-16T18:43:20.795Z,1.9
2023-03-16T18:46:20.797Z,1.9
2023-03-16T18:49:20.881Z,1.8
2023-03-16T18:52:20.773Z,2
2023-03-16T18:55:20.772Z,1.8
2023-03-16T18:58:20.780Z,1.8
2023-03-16T19:01:20.808Z,2.2
2023-03-16T19:04:20.779Z,2.8
2023-03-16T19:07:20.779Z,2.9
2023-03-16T19:10:20.784Z,2.6
2023-03-16T19:13:20.781Z,2.9
2023-03-16T19:16:20.843Z,2.6
2023-03-16T19:19:20.817Z,2.2
2023-03-16T19:22:20.789Z,2
2023-03-16T19:25:20.797Z,2
2023-03-16T19:28:20.790Z,1.8
2023-03-16T19:31:20.834Z,2.2
2023-03-16T19:34:20.809Z,2
2023-03-16T19:37:20.831Z,2
2023-03-16T19:40:20.806Z,2
2023-03-16T19:43:20.814Z,2.1
2023-03-16T19:46:20.907Z,2.2
2023-03-16T19:49:20.818Z,2
2023-03-16T19:52:20.826Z,2.2
2023-03-16T19:55:20.859Z,2.1
2023-03-16T19:58:20.853Z,2.3
2023-03-16T20:01:20.851Z,2.1
2023-03-16T20:04:20.899Z,2.2
2023-03-16T20:07:20.848Z,2.4
2023-03-16T20:10:20.877Z,2.7
2023-03-16T20:13:20.877Z,2.9
2023-03-16T20:16:20.867Z,2.9
2023-03-16T20:19:22.151Z,2.6
2023-03-16T20:22:20.854Z,2.8
2023-03-16T20:25:20.855Z,2.4
2023-03-16T20:28:20.864Z,2.3
2023-03-16T20:31:20.889Z,2.5
2023-03-16T20:34:20.884Z,2.3
2023-03-16T20:37:20.871Z,2.3
2023-03-16T20:40:20.874Z,2.4
2023-03-16T20:43:20.873Z,2.6
2023-03-16T20:46:20.911Z,2.3
2023-03-16T20:49:20.907Z,2.5
2023-03-16T20:52:20.883Z,2.4
2023-03-16T20:55:20.889Z,2.4
2023-03-16T20:58:20.888Z,2.4
2023-03-16T21:01:20.952Z,2.6
2023-03-16T21:04:20.891Z,2.6
2023-03-16T21:07:20.920Z,2.5
2023-03-16T21:10:22.512Z,2.5
2023-03-16T21:13:20.902Z,2.7
2023-03-16T21:16:20.989Z,2.7
2023-03-16T21:19:20.935Z,2.6
2023-03-16T21:22:20.907Z,2.6
2023-03-16T21:25:20.939Z,2.6
2023-03-16T21:28:20.928Z,2.4
2023-03-16T21:31:21.012Z,2.4
2023-03-16T21:34:20.914Z,2.5
2023-03-16T21:37:20.920Z,2.6
2023-03-16T21:40:20.939Z,2.6
2023-03-16T21:43:20.953Z,2.5
2023-03-16T21:46:20.942Z,2.8
2023-03-16T21:49:20.926Z,2.6
2023-03-16T21:52:20.926Z,2.5
2023-03-16T21:55:23.769Z,2.8
2023-03-16T21:58:20.924Z,2.4
2023-03-16T22:01:20.958Z,2.6
2023-03-16T22:04:20.932Z,2.3
2023-03-16T22:07:20.930Z,2.8
2023-03-16T22:10:20.931Z,2.5
2023-03-16T22:13:20.931Z,2.6
2023-03-16T22:16:21.017Z,2.5
2023-03-16T22:19:20.956Z,2.4
2023-03-16T22:22:20.936Z,2.8
2023-03-16T22:25:20.935Z,2.6
2023-03-16T22:28:20.940Z,2.6
2023-03-16T22:31:21.005Z,2.6
2023-03-16T22:34:20.940Z,2.6
2023-03-16T22:37:20.972Z,2.5
2023-03-16T22:40:20.947Z,2.5
2023-03-16T22:43:20.949Z,2.3
2023-03-16T22:46:21.040Z,2.3
2023-03-16T22:49:20.966Z,2
2023-03-16T22:52:20.957Z,1.9
2023-03-16T22:55:21.115Z,2.2
2023-03-16T22:58:20.958Z,2.2
2023-03-16T23:01:21.010Z,2.1
2023-03-16T23:04:21.058Z,2.2
2023-03-16T23:07:20.964Z,2.2
2023-03-16T23:10:20.962Z,2.3
2023-03-16T23:13:21.006Z,2.1
2023-03-16T23:16:21.030Z,2.4
2023-03-16T23:19:24.453Z,2.4
2023-03-16T23:22:20.974Z,2.4
2023-03-16T23:25:20.974Z,2.6
2023-03-16T23:28:20.975Z,2.5
2023-03-16T23:31:21.035Z,2.4
2023-03-16T23:34:20.979Z,2.6
2023-03-16T23:37:20.983Z,2.7
2023-03-16T23:40:20.982Z,2.6
2023-03-16T23:43:20.982Z,2.5
2023-03-16T23:46:21.014Z,2.6
2023-03-16T23:49:21.007Z,2.6
2023-03-16T23:52:20.979Z,2.9
2023-03-16T23:55:20.984Z,2.7
2023-03-16T23:58:20.991Z,3.1
